createdAt,value
2022-09-17T00:04:54.761Z,93098.47
2022-09-17T00:09:57.937Z,93096.25
2022-09-17T00:15:01.040Z,93084.66
2022-09-17T00:20:07.871Z,93077.50
2022-09-17T00:25:11.256Z,93067.59
2022-09-17T00:30:14.781Z,93073.97
2022-09-17T00:35:18.172Z,93055.16
2022-09-17T00:40:22.008Z,93085.75
2022-09-17T00:45:26.253Z,93085.41
2022-09-17T00:50:36.882Z,93075.31
2022-09-17T00:55:41.827Z,93072.88
2022-09-17T01:08:37.738Z,93061.34
2022-09-17T01:21:36.275Z,93037.13
2022-09-17T01:26:45.046Z,93050.13
2022-09-17T01:32:32.505Z,93078.06
2022-09-17T01:37:50.993Z,93094.84
2022-09-17T01:42:56.940Z,93089.69
2022-09-17T01:48:21.802Z,93082.59
2022-09-17T01:53:32.833Z,93092.94
2022-09-17T01:58:42.997Z,93084.19
2022-09-17T02:04:10.006Z,93087.91
2022-09-17T02:09:25.795Z,93069.03
2022-09-17T02:14:35.784Z,93075.78
2022-09-17T02:19:41.602Z,93074.06
2022-09-17T02:24:57.223Z,93059.34
2022-09-17T02:30:01.049Z,93061.25
2022-09-17T02:35:07.050Z,93070.16
2022-09-17T02:40:17.640Z,93043.78
2022-09-17T02:45:42.745Z,93035.25
2022-09-17T02:51:21.114Z,93006.88
2022-09-17T02:56:52.469Z,93018.66
2022-09-17T03:02:17.859Z,93021.25
2022-09-17T03:07:23.414Z,92999.06
2022-09-17T03:12:27.643Z,92998.69
2022-09-17T03:17:31.347Z,92984.56
2022-09-17T03:22:35.897Z,92968.66
2022-09-17T03:27:39.314Z,92940.22
2022-09-17T03:32:43.497Z,92899.22
2022-09-17T03:37:47.670Z,92950.81
2022-09-17T03:42:51.310Z,92988.31
2022-09-17T03:47:54.294Z,92990.88
2022-09-17T03:52:57.846Z,93010.03
2022-09-17T03:58:01.202Z,92995.22
2022-09-17T04:03:05.631Z,93005.59
2022-09-17T04:08:09.067Z,93005.03
2022-09-17T04:13:13.505Z,92968.03
2022-09-17T04:18:16.963Z,92985.44
2022-09-17T04:23:20.509Z,92999.69
2022-09-17T04:28:23.860Z,93000.03
2022-09-17T04:33:26.854Z,92999.91
2022-09-17T04:38:29.827Z,92991.84
2022-09-17T04:43:33.607Z,92998.34
2022-09-17T04:48:36.726Z,92998.94
2022-09-17T04:53:40.334Z,93000.13
2022-09-17T04:58:44.259Z,92997.53
2022-09-17T05:03:48.048Z,93025.25
2022-09-17T05:08:50.982Z,93032.63
2022-09-17T05:13:54.050Z,93041.09
2022-09-17T05:18:58.422Z,93057.47
2022-09-17T05:24:01.931Z,93052.06
2022-09-17T05:29:05.391Z,93053.06
2022-09-17T05:34:09.510Z,93067.03
2022-09-17T05:39:13.169Z,93053.94
2022-09-17T05:44:18.199Z,93043.88
2022-09-17T05:49:21.475Z,93062.03
2022-09-17T05:54:24.529Z,93058.41
2022-09-17T05:59:28.314Z,93055.16
2022-09-17T06:04:34.679Z,93017.13
2022-09-17T06:09:39.235Z,93001.81
2022-09-17T06:14:42.382Z,92975.28
2022-09-17T06:19:46.111Z,92930.25
2022-09-17T06:24:50.299Z,92884.28
2022-09-17T06:29:53.771Z,92847.50
2022-09-17T06:34:57.567Z,92856.00
2022-09-17T06:40:01.124Z,92867.47
2022-09-17T06:45:09.293Z,92875.50
2022-09-17T06:50:14.723Z,92862.69
2022-09-17T06:55:18.135Z,92868.47
2022-09-17T07:00:22.086Z,92856.28
2022-09-17T07:05:26.344Z,92857.13
2022-09-17T07:10:32.473Z,92861.97
2022-09-17T07:15:36.160Z,92864.22
2022-09-17T07:20:39.878Z,92878.78
2022-09-17T07:25:43.331Z,92902.03
2022-09-17T07:30:46.848Z,92863.44
2022-09-17T07:35:58.193Z,92901.59
2022-09-17T07:41:04.689Z,92905.97
2022-09-17T07:46:10.908Z,92914.25
2022-09-17T07:51:20.407Z,92922.00
2022-09-17T07:56:25.418Z,92906.91
2022-09-17T08:01:28.375Z,92911.09
2022-09-17T08:06:32.292Z,92923.41
2022-09-17T08:11:55.241Z,92916.75
2022-09-17T08:16:59.533Z,92915.72
2022-09-17T08:22:03.501Z,92924.38
2022-09-17T08:27:06.528Z,92932.25
2022-09-17T08:32:09.913Z,92929.31
2022-09-17T08:37:12.911Z,92943.50
2022-09-17T08:42:37.861Z,92932.44
2022-09-17T08:47:43.986Z,92938.69
2022-09-17T08:53:13.980Z,92936.06
2022-09-17T08:58:40.971Z,92936.38
2022-09-17T09:04:19.596Z,92938.78
2022-09-17T09:09:29.415Z,92951.53
2022-09-17T09:14:40.683Z,92958.66
2022-09-17T09:19:46.484Z,92935.22
2022-09-17T09:25:07.081Z,92951.47
2022-09-17T09:30:11.936Z,92945.69
2022-09-17T09:35:21.308Z,92943.78
2022-09-17T09:41:05.848Z,92930.50
2022-09-17T09:46:39.652Z,92926.97
2022-09-17T09:52:12.139Z,92931.13
2022-09-17T09:57:28.126Z,92919.56
2022-09-17T10:02:32.730Z,92920.50
2022-09-17T10:07:44.955Z,92912.06
2022-09-17T10:12:47.908Z,92917.41
2022-09-17T10:18:14.373Z,92917.44
2022-09-17T10:23:18.176Z,92899.94
2022-09-17T10:28:29.395Z,92901.88
2022-09-17T10:33:34.339Z,92902.13
2022-09-17T10:38:42.430Z,92903.00
2022-09-17T10:43:46.647Z,92860.41
2022-09-17T10:49:08.811Z,92906.25
2022-09-17T10:54:19.921Z,92910.03
2022-09-17T10:59:38.736Z,92891.25
2022-09-17T11:05:25.253Z,92887.28
2022-09-17T11:10:33.969Z,92866.03
2022-09-17T11:16:15.575Z,92871.59
2022-09-17T11:21:28.650Z,92870.56
2022-09-17T11:26:57.556Z,92856.50
2022-09-17T11:32:11.190Z,92866.59
2022-09-17T11:37:25.855Z,92863.91
2022-09-17T11:42:38.237Z,92859.53
2022-09-17T11:47:52.068Z,92866.97
2022-09-17T11:53:08.277Z,92871.53
2022-09-17T11:58:21.688Z,92881.44
2022-09-17T12:03:36.061Z,92879.69
2022-09-17T12:08:59.707Z,92875.44
2022-09-17T12:14:15.022Z,92883.06
2022-09-17T12:19:22.907Z,92868.63
2022-09-17T12:24:31.209Z,92867.91
2022-09-17T12:30:06.669Z,92851.91
2022-09-17T12:36:03.062Z,92849.63
2022-09-17T12:41:18.997Z,92826.44
2022-09-17T12:46:43.662Z,92845.50
2022-09-17T12:51:53.043Z,92850.16
2022-09-17T12:57:17.919Z,92854.91
2022-09-17T13:02:21.025Z,92848.66
2022-09-17T13:07:48.973Z,92848.88
2022-09-17T13:13:17.586Z,92841.50
2022-09-17T13:18:35.353Z,92854.91
2022-09-17T13:23:43.661Z,92833.84
2022-09-17T13:28:52.152Z,92811.84
2022-09-17T13:34:02.252Z,92836.44
2022-09-17T13:39:08.711Z,92836.00
2022-09-17T13:44:13.059Z,92824.63
2022-09-17T13:49:17.292Z,92838.31
2022-09-17T13:54:23.046Z,92841.91
2022-09-17T13:59:28.823Z,92846.66
2022-09-17T14:04:42.828Z,92846.81
2022-09-17T14:10:00.657Z,92839.25
2022-09-17T14:15:03.781Z,92850.94
2022-09-17T14:20:09.584Z,92843.94
2022-09-17T14:25:19.889Z,92860.13
2022-09-17T14:30:34.521Z,92854.34
2022-09-17T14:35:49.670Z,92855.03
2022-09-17T14:41:05.569Z,92864.25
2022-09-17T14:46:14.815Z,92865.13
2022-09-17T14:51:18.832Z,92857.19
2022-09-17T14:56:23.823Z,92854.28
2022-09-17T15:01:31.670Z,92868.81
2022-09-17T15:06:35.129Z,92857.38
2022-09-17T15:11:42.141Z,92856.88
2022-09-17T15:16:54.662Z,92869.56
2022-09-17T15:22:07.948Z,92882.03
2022-09-17T15:27:15.975Z,92874.28
2022-09-17T15:32:19.845Z,92880.50
2022-09-17T15:37:28.082Z,92879.97
2022-09-17T15:42:31.625Z,92886.94
2022-09-17T15:47:54.299Z,92873.38
2022-09-17T15:53:09.904Z,92883.72
2022-09-17T15:58:28.284Z,92877.28
2022-09-17T16:03:40.707Z,92885.28
2022-09-17T16:08:48.965Z,92876.94
2022-09-17T16:13:54.393Z,92878.09
2022-09-17T16:18:57.560Z,92880.53
2022-09-17T16:24:01.216Z,92890.06
2022-09-17T16:29:16.257Z,92900.00
2022-09-17T16:34:20.146Z,92837.38
2022-09-17T16:39:24.710Z,92870.38
2022-09-17T16:44:28.727Z,92882.50
2022-09-17T16:49:33.072Z,92885.78
2022-09-17T16:54:36.463Z,92880.38
2022-09-17T16:59:40.125Z,92878.41
2022-09-17T17:04:43.922Z,92890.63
2022-09-17T17:09:48.636Z,92877.16
2022-09-17T17:14:52.808Z,92874.41
2022-09-17T17:19:56.436Z,92879.38
2022-09-17T17:24:59.586Z,92885.47
2022-09-17T17:30:04.934Z,92902.44
2022-09-17T17:35:09.245Z,92901.19
2022-09-17T17:40:12.353Z,92901.41
2022-09-17T17:45:16.138Z,92912.47
2022-09-17T17:50:19.172Z,92917.22
2022-09-17T17:55:22.799Z,92921.13
2022-09-17T18:00:26.061Z,92935.03
2022-09-17T18:05:30.075Z,92948.22
2022-09-17T18:10:33.091Z,92960.06
2022-09-17T18:15:36.462Z,92964.31
2022-09-17T18:20:39.467Z,92962.47
2022-09-17T18:25:42.926Z,92959.69
2022-09-17T18:30:46.407Z,92970.97
2022-09-17T18:35:49.957Z,92965.38
2022-09-17T18:40:53.547Z,92974.91
2022-09-17T18:45:58.416Z,92973.44
2022-09-17T18:51:04.347Z,92984.25
2022-09-17T18:56:10.983Z,92989.41
2022-09-17T19:01:15.103Z,92999.22
2022-09-17T19:06:18.733Z,92989.69
2022-09-17T19:11:22.170Z,92996.59
2022-09-17T19:16:25.379Z,93012.41
2022-09-17T19:21:28.803Z,93017.69
2022-09-17T19:26:32.200Z,93020.81
2022-09-17T19:31:35.391Z,93028.88
2022-09-17T19:36:38.848Z,93050.00
2022-09-17T19:41:42.656Z,93048.19
2022-09-17T19:46:47.370Z,93064.41
2022-09-17T19:51:50.925Z,93050.91
2022-09-17T19:56:54.388Z,93060.09
2022-09-17T20:01:57.970Z,93057.31
2022-09-17T20:07:03.992Z,93050.91
2022-09-17T20:12:07.112Z,93048.56
2022-09-17T20:17:12.479Z,93046.09
2022-09-17T20:22:15.428Z,93039.38
2022-09-17T20:27:19.001Z,93032.75
2022-09-17T20:32:22.299Z,93057.22
2022-09-17T20:38:08.366Z,93071.41
2022-09-17T20:42:48.600Z,93065.94
2022-09-17T20:47:51.733Z,93093.63
2022-09-17T20:52:55.382Z,93096.09
2022-09-17T20:57:58.384Z,93071.22
2022-09-17T21:03:02.017Z,93056.75
2022-09-17T21:08:06.030Z,93072.56
2022-09-17T21:13:10.756Z,93069.88
2022-09-17T21:18:15.965Z,93060.34
2022-09-17T21:23:26.625Z,93064.38
2022-09-17T21:28:31.434Z,93075.44
2022-09-17T21:33:34.442Z,93066.03
2022-09-17T21:38:38.702Z,93093.75
2022-09-17T21:43:43.976Z,93093.59
2022-09-17T21:48:52.358Z,93083.53
2022-09-17T21:53:58.094Z,93075.97
2022-09-17T21:59:06.437Z,93071.16
2022-09-17T22:04:15.949Z,93059.19
2022-09-17T22:09:22.506Z,93055.56
2022-09-17T22:14:26.617Z,93070.47
2022-09-17T22:19:29.603Z,93068.66
2022-09-17T22:24:33.038Z,93068.44
2022-09-17T22:29:36.132Z,93077.25
2022-09-17T22:34:39.053Z,93078.16
2022-09-17T22:39:42.001Z,93084.63
2022-09-17T22:44:45.186Z,93079.25
2022-09-17T22:49:48.635Z,93101.09
2022-09-17T22:54:51.812Z,93096.91
2022-09-17T22:59:54.732Z,93097.28
2022-09-17T23:04:58.942Z,93096.66
2022-09-17T23:10:02.501Z,93104.44
2022-09-17T23:15:06.315Z,93087.69
2022-09-17T23:20:09.638Z,93101.47
2022-09-17T23:25:12.705Z,93092.41
2022-09-17T23:30:15.698Z,93100.63
2022-09-17T23:35:19.219Z,93095.25
2022-09-17T23:40:23.759Z,93110.97
2022-09-17T23:45:27.057Z,93094.09
2022-09-17T23:50:30.036Z,93116.03
2022-09-17T23:55:33.483Z,93103.06
